Ana Sayfa
METAR-TAF:

METAR-TAF

Havaalanları :

Kuveyt, Kuveyt

Enlem: 29-13N, Boylam: 047-59E, yükseklik: 55 m

Güncel hava durumu gözlemi

Rapor saat 07:00 UTC de 55 dakika önce yapıldı.
Rüzgar batıdan 5 kt
Sıcaklık 18°C
Nem 77%
Basınç 1022 hPa
Görüş mesafesi 10 km veya daha fazla
1500 m altında bulut yok ve kümülonimbus yok

METAR: OKBK 210700Z 27005KT CAVOK 18/14 Q1022 NOSIG

Saat: 10:55 (07:55 UTC)

Tahmin

Rapor saat 04:45 UTC de 3 saat ve 10 dakika önce yapıldı.
Ayın 21'si saat 06 UTC'den ayın 22'si saat 12 UTC'ye kadar geçerli Tahmin
Rüzgar kuzey/kuzeybatıdan 12 kt
Görüş mesafesi: 8000 m
Açık gökyüzü
Geçici
ayın 12'si saat 12 UTC'den ayın 12'si saat 23 UTC'ye kadar
Rüzgar değişken yönden 3 kt

TAF: OKBK 210445Z 2106/2212 34012KT 8000 SKC TEMPO 1212/1223 VRB03KT

4.000'den fazla havaalanı için hava durumu gözlemleri ve tahminleri (METAR ve TAF raporları).

Kullanılabilir istasyonlar harita üzerinde sarı ve kırmızı noktalarla gösterilir.

İstasyonun adını görmek için fareyi noktanın üzerinde gezdirin.

Sonrasında hava gözlem ve tahminlerini görmek için tıklayın.

Haritayı değiştirmek için: yaklaştırmak için siyah artı işaretli yeşil düğmeye ve uzaklaştırmak için de eksi işaretli düğmeye hızla tıklayın; bitişik haritalar için yeşil okları kullanın.


METAR-TAF: